Lobo

Go HERE for most recent data if this page is not up to date.

Jump to table bottom
Date/Time Temp deg F RH % 24 Hr Snow (in) Snow Depth (in) H2O (in)
05/26 04:00 42.7 40 "NAN" 52.1 0.00
05/26 03:00 43.2 38 "NAN" 52.2 0.00
05/26 02:00 43.4 39 "NAN" 52.0 0.00
05/26 01:00 45.0 38 "NAN" 52.3 0.00
05/26 00:00 45.9 34 "NAN" 52.1 0.00
05/25 23:00 45.9 37 "NAN" 52.2 0.00
05/25 22:00 46.3 39 "NAN" 52.1 0.00
05/25 21:00 47.3 38 "NAN" 52.2 0.00
05/25 20:00 47.8 39 "NAN" 51.9 0.00
05/25 19:00 49.4 36 "NAN" 52.2 0.00
05/25 18:00 50.5 35 "NAN" 52.2 0.00
05/25 17:00 50.3 30 "NAN" 52.2 0.00
05/25 16:00 50.4 31 "NAN" 52.3 0.00
05/25 15:00 50.6 33 "NAN" 52.3 0.00
05/25 14:00 48.0 41 "NAN" 52.8 0.00
05/25 13:00 45.8 42 "NAN" 52.8 0.00
05/25 12:00 44.9 48 "NAN" 52.9 0.00
05/25 11:00 40.2 52 "NAN" 53.3 0.00
05/25 10:00 38.8 55 "NAN" 53.4 0.00
05/25 09:00 37.4 57 "NAN" 53.5 0.00
05/25 08:00 36.7 53 "NAN" 53.5 0.00
05/25 07:00 35.2 51 "NAN" 53.5 0.00
05/25 06:00 34.0 54 "NAN" 53.5 0.00
05/25 05:00 34.1 51 "NAN" 53.6 0.00
05/25 04:00 34.0 52 "NAN" 53.6 0.00
05/25 03:00 33.5 49 "NAN" 53.5 0.00
05/25 02:00 33.8 49 "NAN" 53.4 0.00
05/25 01:00 33.5 47 "NAN" 53.5 0.00
05/25 00:00 33.6 49 "NAN" 53.5 0.00
.